sensor_id;sensor_type;location;lat;lon;timestamp;pressure;altitude;pressure_sealevel;temperature;humidity
53715;BME280;39608;55.630;37.864;2023-04-27T00:04:44;98759.34;;;12.08;54.96
53715;BME280;39608;55.630;37.864;2023-04-27T00:09:46;98772.59;;;12.27;54.64
53715;BME280;39608;55.630;37.864;2023-04-27T00:14:48;98778.66;;;12.33;54.60
53715;BME280;39608;55.630;37.864;2023-04-27T00:19:52;98772.09;;;12.34;54.51
53715;BME280;39608;55.630;37.864;2023-04-27T00:24:54;98752.59;;;12.23;54.72
53715;BME280;39608;55.630;37.864;2023-04-27T00:29:56;98790.94;;;12.48;54.26
53715;BME280;39608;55.630;37.864;2023-04-27T00:34:59;98788.63;;;12.59;54.78
53715;BME280;39608;55.630;37.864;2023-04-27T00:40:03;98779.31;;;12.69;54.46
53715;BME280;39608;55.630;37.864;2023-04-27T00:45:07;98756.59;;;12.73;53.81
53715;BME280;39608;55.630;37.864;2023-04-27T00:50:11;98767.28;;;13.08;53.50
53715;BME280;39608;55.630;37.864;2023-04-27T00:55:13;98751.81;;;13.21;53.88
53715;BME280;39608;55.630;37.864;2023-04-27T01:00:15;98765.91;;;13.44;53.08
53715;BME280;39608;55.630;37.864;2023-04-27T01:05:19;98745.97;;;13.52;52.86
53715;BME280;39608;55.630;37.864;2023-04-27T01:10:21;98777.56;;;13.54;52.80
53715;BME280;39608;55.630;37.864;2023-04-27T01:15:24;98761.22;;;13.03;53.61
53715;BME280;39608;55.630;37.864;2023-04-27T01:20:27;98777.13;;;12.62;54.84
53715;BME280;39608;55.630;37.864;2023-04-27T01:25:33;98770.66;;;12.28;55.46
53715;BME280;39608;55.630;37.864;2023-04-27T01:30:35;98774.53;;;12.18;55.58
53715;BME280;39608;55.630;37.864;2023-04-27T01:35:37;98760.97;;;12.09;55.92
53715;BME280;39608;55.630;37.864;2023-04-27T01:40:40;98776.22;;;12.40;55.55
53715;BME280;39608;55.630;37.864;2023-04-27T01:45:42;98762.25;;;12.59;55.11
53715;BME280;39608;55.630;37.864;2023-04-27T01:50:44;98769.75;;;12.92;53.38
53715;BME280;39608;55.630;37.864;2023-04-27T01:55:48;98760.28;;;12.98;52.83
53715;BME280;39608;55.630;37.864;2023-04-27T02:00:50;98768.94;;;13.22;52.80
53715;BME280;39608;55.630;37.864;2023-04-27T02:05:53;98788.94;;;13.26;53.13
53715;BME280;39608;55.630;37.864;2023-04-27T02:10:56;98778.28;;;12.82;54.17
53715;BME280;39608;55.630;37.864;2023-04-27T02:15:58;98772.91;;;12.26;55.12
53715;BME280;39608;55.630;37.864;2023-04-27T02:21:07;98804.09;;;12.28;55.85
53715;BME280;39608;55.630;37.864;2023-04-27T02:26:16;98795.47;;;12.18;56.70
53715;BME280;39608;55.630;37.864;2023-04-27T02:31:19;98803.78;;;12.12;56.13
53715;BME280;39608;55.630;37.864;2023-04-27T02:36:21;98803.47;;;12.23;55.63
53715;BME280;39608;55.630;37.864;2023-04-27T02:41:24;98811.41;;;12.45;54.80
53715;BME280;39608;55.630;37.864;2023-04-27T02:46:27;98820.00;;;12.56;54.99
53715;BME280;39608;55.630;37.864;2023-04-27T02:51:29;98818.09;;;12.57;54.91
53715;BME280;39608;55.630;37.864;2023-04-27T02:56:33;98830.91;;;12.47;55.50
53715;BME280;39608;55.630;37.864;2023-04-27T03:01:35;98833.66;;;12.39;55.39
53715;BME280;39608;55.630;37.864;2023-04-27T03:06:37;98830.78;;;12.44;55.79
53715;BME280;39608;55.630;37.864;2023-04-27T03:11:40;98847.19;;;12.65;55.13
53715;BME280;39608;55.630;37.864;2023-04-27T03:16:42;98851.19;;;12.68;54.89
53715;BME280;39608;55.630;37.864;2023-04-27T03:21:45;98854.81;;;12.72;55.08
53715;BME280;39608;55.630;37.864;2023-04-27T03:26:48;98864.75;;;12.76;55.25
53715;BME280;39608;55.630;37.864;2023-04-27T03:31:50;98864.56;;;12.81;55.02
53715;BME280;39608;55.630;37.864;2023-04-27T03:36:52;98859.94;;;12.82;55.41
53715;BME280;39608;55.630;37.864;2023-04-27T03:41:56;98873.31;;;12.96;54.84
53715;BME280;39608;55.630;37.864;2023-04-27T03:46:58;98870.09;;;13.03;54.63
53715;BME280;39608;55.630;37.864;2023-04-27T03:52:01;98875.50;;;13.11;54.57
53715;BME280;39608;55.630;37.864;2023-04-27T03:57:05;98883.06;;;13.06;54.99
53715;BME280;39608;55.630;37.864;2023-04-27T04:02:07;98884.97;;;13.05;54.88
53715;BME280;39608;55.630;37.864;2023-04-27T04:07:11;98889.06;;;13.20;54.91
53715;BME280;39608;55.630;37.864;2023-04-27T04:12:14;98893.66;;;13.37;54.54
53715;BME280;39608;55.630;37.864;2023-04-27T04:17:16;98890.94;;;13.28;54.35
53715;BME280;39608;55.630;37.864;2023-04-27T04:22:18;98900.25;;;13.36;54.37
53715;BME280;39608;55.630;37.864;2023-04-27T04:27:22;98901.59;;;13.51;54.20
53715;BME280;39608;55.630;37.864;2023-04-27T04:32:24;98905.19;;;13.34;54.35
53715;BME280;39608;55.630;37.864;2023-04-27T04:37:32;98907.09;;;13.42;54.30
53715;BME280;39608;55.630;37.864;2023-04-27T04:42:36;98912.31;;;13.56;54.20
53715;BME280;39608;55.630;37.864;2023-04-27T04:47:38;98916.56;;;13.66;53.78
53715;BME280;39608;55.630;37.864;2023-04-27T04:52:41;98888.16;;;13.97;53.74
53715;BME280;39608;55.630;37.864;2023-04-27T04:57:44;98925.03;;;15.16;51.83
53715;BME280;39608;55.630;37.864;2023-04-27T05:02:46;98928.22;;;15.92;50.77
53715;BME280;39608;55.630;37.864;2023-04-27T05:07:48;98919.66;;;17.07;48.68
53715;BME280;39608;55.630;37.864;2023-04-27T05:12:52;98916.38;;;18.01;46.88
53715;BME280;39608;55.630;37.864;2023-04-27T05:17:54;98938.38;;;18.83;45.12
53715;BME280;39608;55.630;37.864;2023-04-27T05:22:56;98931.00;;;19.56;43.70
53715;BME280;39608;55.630;37.864;2023-04-27T05:28:00;98935.63;;;19.79;43.50
53715;BME280;39608;55.630;37.864;2023-04-27T05:33:03;98944.03;;;20.16;42.63
53715;BME280;39608;55.630;37.864;2023-04-27T05:38:05;98937.47;;;20.59;41.75
53715;BME280;39608;55.630;37.864;2023-04-27T05:43:08;98949.28;;;20.93;41.09
53715;BME280;39608;55.630;37.864;2023-04-27T05:48:10;98943.34;;;20.91;40.74
53715;BME280;39608;55.630;37.864;2023-04-27T05:53:13;98935.94;;;20.99;39.79
53715;BME280;39608;55.630;37.864;2023-04-27T05:58:18;98944.44;;;21.24;39.45
53715;BME280;39608;55.630;37.864;2023-04-27T06:03:20;98943.34;;;21.32;38.84
53715;BME280;39608;55.630;37.864;2023-04-27T06:08:22;98953.63;;;21.91;38.41
53715;BME280;39608;55.630;37.864;2023-04-27T06:13:26;98949.34;;;22.04;37.66
53715;BME280;39608;55.630;37.864;2023-04-27T06:18:28;98942.88;;;21.72;37.25
53715;BME280;39608;55.630;37.864;2023-04-27T06:23:30;98932.72;;;21.90;36.88
53715;BME280;39608;55.630;37.864;2023-04-27T06:28:34;98920.94;;;22.00;36.56
53715;BME280;39608;55.630;37.864;2023-04-27T06:33:36;98957.50;;;22.56;35.72
53715;BME280;39608;55.630;37.864;2023-04-27T06:38:38;98942.06;;;22.45;34.97
53715;BME280;39608;55.630;37.864;2023-04-27T06:43:42;98938.19;;;22.64;35.28
53715;BME280;39608;55.630;37.864;2023-04-27T06:48:44;98927.66;;;23.20;33.07
53715;BME280;39608;55.630;37.864;2023-04-27T06:53:47;98951.75;;;23.41;31.57
53715;BME280;39608;55.630;37.864;2023-04-27T06:58:50;98938.31;;;23.39;31.93
53715;BME280;39608;55.630;37.864;2023-04-27T07:03:53;98962.03;;;23.55;31.55
53715;BME280;39608;55.630;37.864;2023-04-27T07:08:55;98971.13;;;23.52;31.92
53715;BME280;39608;55.630;37.864;2023-04-27T07:13:58;98964.78;;;23.58;32.48
53715;BME280;39608;55.630;37.864;2023-04-27T07:19:01;98958.06;;;23.81;32.03
53715;BME280;39608;55.630;37.864;2023-04-27T07:24:03;98924.81;;;23.78;31.36
53715;BME280;39608;55.630;37.864;2023-04-27T07:29:07;98948.09;;;24.13;31.68
53715;BME280;39608;55.630;37.864;2023-04-27T07:34:09;98955.22;;;24.10;31.04
53715;BME280;39608;55.630;37.864;2023-04-27T07:39:12;98963.09;;;24.33;29.74
53715;BME280;39608;55.630;37.864;2023-04-27T07:44:16;98958.81;;;24.03;30.28
53715;BME280;39608;55.630;37.864;2023-04-27T07:49:19;98956.69;;;24.40;29.55
53715;BME280;39608;55.630;37.864;2023-04-27T07:54:21;98908.41;;;24.41;28.97
53715;BME280;39608;55.630;37.864;2023-04-27T07:59:27;98944.47;;;25.08;28.87
53715;BME280;39608;55.630;37.864;2023-04-27T08:04:29;98911.88;;;25.19;28.03
53715;BME280;39608;55.630;37.864;2023-04-27T08:09:32;98959.91;;;26.07;27.45
53715;BME280;39608;55.630;37.864;2023-04-27T08:14:35;98946.38;;;26.43;27.19
53715;BME280;39608;55.630;37.864;2023-04-27T08:19:38;98962.34;;;26.67;26.82
53715;BME280;39608;55.630;37.864;2023-04-27T08:24:41;98969.22;;;26.27;27.07
53715;BME280;39608;55.630;37.864;2023-04-27T08:29:48;98979.94;;;26.29;27.30
53715;BME280;39608;55.630;37.864;2023-04-27T08:34:50;98970.97;;;26.10;27.37
53715;BME280;39608;55.630;37.864;2023-04-27T08:39:52;98938.88;;;26.40;27.50
53715;BME280;39608;55.630;37.864;2023-04-27T08:44:55;98966.25;;;26.07;28.49
53715;BME280;39608;55.630;37.864;2023-04-27T08:49:57;98965.63;;;26.30;27.24
53715;BME280;39608;55.630;37.864;2023-04-27T08:55:01;98965.19;;;26.63;27.11
53715;BME280;39608;55.630;37.864;2023-04-27T09:00:07;98970.13;;;27.10;26.63
53715;BME280;39608;55.630;37.864;2023-04-27T09:05:16;98978.50;;;27.37;26.60
53715;BME280;39608;55.630;37.864;2023-04-27T09:10:18;98971.88;;;27.98;25.85
53715;BME280;39608;55.630;37.864;2023-04-27T09:15:24;98986.00;;;28.31;26.01
53715;BME280;39608;55.630;37.864;2023-04-27T09:20:26;98959.13;;;28.21;25.54
53715;BME280;39608;55.630;37.864;2023-04-27T09:25:31;98978.78;;;28.34;25.89
53715;BME280;39608;55.630;37.864;2023-04-27T09:30:35;98985.78;;;28.42;25.31
53715;BME280;39608;55.630;37.864;2023-04-27T09:35:40;98970.34;;;27.94;26.07
53715;BME280;39608;55.630;37.864;2023-04-27T09:40:42;98968.47;;;28.51;25.52
53715;BME280;39608;55.630;37.864;2023-04-27T09:45:47;98943.63;;;28.93;25.13
53715;BME280;39608;55.630;37.864;2023-04-27T09:50:50;98974.28;;;28.40;24.51
53715;BME280;39608;55.630;37.864;2023-04-27T09:56:01;98976.47;;;27.85;25.17
53715;BME280;39608;55.630;37.864;2023-04-27T10:01:14;98963.34;;;27.86;25.27
53715;BME280;39608;55.630;37.864;2023-04-27T10:06:50;98979.34;;;27.58;26.13
53715;BME280;39608;55.630;37.864;2023-04-27T10:11:53;98967.78;;;27.59;25.21
53715;BME280;39608;55.630;37.864;2023-04-27T10:16:57;98977.03;;;27.02;25.50
53715;BME280;39608;55.630;37.864;2023-04-27T10:22:00;98955.59;;;26.68;24.98
53715;BME280;39608;55.630;37.864;2023-04-27T10:27:05;98967.25;;;27.44;24.49
53715;BME280;39608;55.630;37.864;2023-04-27T10:32:11;98972.50;;;27.86;24.17
53715;BME280;39608;55.630;37.864;2023-04-27T10:37:14;98959.09;;;27.30;23.98
53715;BME280;39608;55.630;37.864;2023-04-27T10:42:26;98966.47;;;26.24;25.78
53715;BME280;39608;55.630;37.864;2023-04-27T10:47:38;98970.78;;;24.82;26.95
53715;BME280;39608;55.630;37.864;2023-04-27T10:52:40;98983.38;;;23.54;28.59
53715;BME280;39608;55.630;37.864;2023-04-27T10:57:47;98982.41;;;22.67;30.52
53715;BME280;39608;55.630;37.864;2023-04-27T11:02:53;98996.81;;;21.65;33.73
53715;BME280;39608;55.630;37.864;2023-04-27T11:08:06;98994.47;;;20.55;35.58
53715;BME280;39608;55.630;37.864;2023-04-27T11:13:09;99012.50;;;18.98;42.50
53715;BME280;39608;55.630;37.864;2023-04-27T11:18:13;99036.22;;;18.32;43.70
53715;BME280;39608;55.630;37.864;2023-04-27T11:23:24;99036.81;;;17.90;43.82
53715;BME280;39608;55.630;37.864;2023-04-27T11:28:26;99026.66;;;18.06;45.03
53715;BME280;39608;55.630;37.864;2023-04-27T11:33:30;99031.16;;;18.89;42.01
53715;BME280;39608;55.630;37.864;2023-04-27T11:38:32;99017.19;;;19.91;39.69
53715;BME280;39608;55.630;37.864;2023-04-27T11:43:39;99008.38;;;20.96;40.80
53715;BME280;39608;55.630;37.864;2023-04-27T11:48:43;99014.56;;;23.12;36.25
53715;BME280;39608;55.630;37.864;2023-04-27T11:53:46;99025.31;;;23.67;33.79
53715;BME280;39608;55.630;37.864;2023-04-27T11:58:53;99001.53;;;23.27;33.92
53715;BME280;39608;55.630;37.864;2023-04-27T12:03:59;99007.50;;;23.47;33.75
53715;BME280;39608;55.630;37.864;2023-04-27T12:09:02;98998.78;;;23.95;33.29
53715;BME280;39608;55.630;37.864;2023-04-27T12:14:04;98997.66;;;24.96;31.85
53715;BME280;39608;55.630;37.864;2023-04-27T12:19:09;98996.44;;;25.64;31.06
53715;BME280;39608;55.630;37.864;2023-04-27T12:24:11;98987.03;;;25.92;29.82
53715;BME280;39608;55.630;37.864;2023-04-27T12:29:13;98994.63;;;26.60;30.54
53715;BME280;39608;55.630;37.864;2023-04-27T12:34:17;98982.94;;;27.31;27.73
53715;BME280;39608;55.630;37.864;2023-04-27T12:39:20;98977.28;;;26.84;27.55
53715;BME280;39608;55.630;37.864;2023-04-27T12:44:24;98968.09;;;26.87;27.17
53715;BME280;39608;55.630;37.864;2023-04-27T12:49:28;98964.19;;;26.15;27.83
53715;BME280;39608;55.630;37.864;2023-04-27T12:54:30;98970.75;;;25.52;28.33
53715;BME280;39608;55.630;37.864;2023-04-27T12:59:32;98976.50;;;26.18;27.59
53715;BME280;39608;55.630;37.864;2023-04-27T13:04:36;98965.69;;;27.16;26.36
53715;BME280;39608;55.630;37.864;2023-04-27T13:09:38;98960.56;;;27.11;26.85
53715;BME280;39608;55.630;37.864;2023-04-27T13:14:41;98948.19;;;27.87;26.40
53715;BME280;39608;55.630;37.864;2023-04-27T13:19:46;98958.09;;;28.72;25.35
53715;BME280;39608;55.630;37.864;2023-04-27T13:24:49;98948.59;;;28.49;25.09
53715;BME280;39608;55.630;37.864;2023-04-27T13:29:51;98957.25;;;28.14;24.82
53715;BME280;39608;55.630;37.864;2023-04-27T13:34:54;98959.34;;;28.30;25.34
53715;BME280;39608;55.630;37.864;2023-04-27T13:39:56;98960.13;;;28.11;25.00
53715;BME280;39608;55.630;37.864;2023-04-27T13:44:58;98956.94;;;27.41;25.45
53715;BME280;39608;55.630;37.864;2023-04-27T13:50:04;98957.47;;;27.05;25.69
53715;BME280;39608;55.630;37.864;2023-04-27T13:55:09;98961.78;;;27.37;25.36
53715;BME280;39608;55.630;37.864;2023-04-27T14:00:12;98951.59;;;27.51;25.44
53715;BME280;39608;55.630;37.864;2023-04-27T14:05:19;98941.34;;;26.93;25.82
53715;BME280;39608;55.630;37.864;2023-04-27T14:10:21;98961.59;;;26.32;26.44
53715;BME280;39608;55.630;37.864;2023-04-27T14:15:23;98958.25;;;26.13;26.63
53715;BME280;39608;55.630;37.864;2023-04-27T14:20:27;98957.38;;;26.23;26.47
53715;BME280;39608;55.630;37.864;2023-04-27T14:25:30;98953.09;;;26.15;26.79
53715;BME280;39608;55.630;37.864;2023-04-27T14:30:34;98953.63;;;26.03;26.76
53715;BME280;39608;55.630;37.864;2023-04-27T14:35:37;98957.97;;;26.00;27.01
53715;BME280;39608;55.630;37.864;2023-04-27T14:40:39;98961.66;;;26.28;25.97
53715;BME280;39608;55.630;37.864;2023-04-27T14:45:41;98948.75;;;26.45;25.90
53715;BME280;39608;55.630;37.864;2023-04-27T14:50:45;98943.06;;;26.56;25.64
53715;BME280;39608;55.630;37.864;2023-04-27T14:55:47;98949.13;;;26.12;25.89
53715;BME280;39608;55.630;37.864;2023-04-27T15:00:49;98953.00;;;26.22;26.29
53715;BME280;39608;55.630;37.864;2023-04-27T15:05:52;98946.69;;;26.18;26.10
53715;BME280;39608;55.630;37.864;2023-04-27T15:10:55;98947.38;;;25.46;26.53
53715;BME280;39608;55.630;37.864;2023-04-27T15:15:59;98941.28;;;25.13;27.37
53715;BME280;39608;55.630;37.864;2023-04-27T15:21:03;98942.88;;;25.14;27.30
53715;BME280;39608;55.630;37.864;2023-04-27T15:26:05;98942.13;;;25.03;27.47
53715;BME280;39608;55.630;37.864;2023-04-27T15:31:07;98944.81;;;24.47;27.83
53715;BME280;39608;55.630;37.864;2023-04-27T15:36:10;98945.38;;;23.77;28.56
53715;BME280;39608;55.630;37.864;2023-04-27T15:41:12;98953.28;;;23.02;29.86
53715;BME280;39608;55.630;37.864;2023-04-27T15:46:15;98946.84;;;22.55;31.01
53715;BME280;39608;55.630;37.864;2023-04-27T15:51:19;98936.88;;;22.29;31.25
53715;BME280;39608;55.630;37.864;2023-04-27T15:56:21;98958.91;;;22.18;31.61
53715;BME280;39608;55.630;37.864;2023-04-27T16:01:24;98960.38;;;21.94;32.14
53715;BME280;39608;55.630;37.864;2023-04-27T16:06:32;98964.94;;;21.72;32.10
53715;BME280;39608;55.630;37.864;2023-04-27T16:11:35;98959.16;;;21.43;32.73
53715;BME280;39608;55.630;37.864;2023-04-27T16:16:37;98969.38;;;21.39;33.35
53715;BME280;39608;55.630;37.864;2023-04-27T16:21:40;98980.34;;;21.31;33.72
53715;BME280;39608;55.630;37.864;2023-04-27T16:26:42;98961.22;;;21.05;33.72
53715;BME280;39608;55.630;37.864;2023-04-27T16:31:48;98985.25;;;21.08;33.46
53715;BME280;39608;55.630;37.864;2023-04-27T16:36:51;98983.41;;;20.81;34.60
53715;BME280;39608;55.630;37.864;2023-04-27T16:41:54;98988.88;;;20.78;35.15
53715;BME280;39608;55.630;37.864;2023-04-27T16:46:56;98982.00;;;20.64;35.60
53715;BME280;39608;55.630;37.864;2023-04-27T16:52:00;98990.69;;;20.66;34.94
53715;BME280;39608;55.630;37.864;2023-04-27T16:57:02;98992.44;;;20.48;35.48
53715;BME280;39608;55.630;37.864;2023-04-27T17:02:05;98988.72;;;20.33;35.50
53715;BME280;39608;55.630;37.864;2023-04-27T17:07:09;99002.06;;;20.31;36.46
53715;BME280;39608;55.630;37.864;2023-04-27T17:12:11;98985.97;;;20.06;35.85
53715;BME280;39608;55.630;37.864;2023-04-27T17:17:14;98988.22;;;19.97;36.05
53715;BME280;39608;55.630;37.864;2023-04-27T17:22:17;99004.72;;;19.97;36.05
53715;BME280;39608;55.630;37.864;2023-04-27T17:27:20;99007.38;;;19.90;37.39
53715;BME280;39608;55.630;37.864;2023-04-27T17:32:22;99002.97;;;19.85;37.43
53715;BME280;39608;55.630;37.864;2023-04-27T17:37:25;99011.28;;;19.89;36.27
53715;BME280;39608;55.630;37.864;2023-04-27T17:42:27;99011.41;;;19.73;36.57
53715;BME280;39608;55.630;37.864;2023-04-27T17:47:29;99013.63;;;19.63;36.54
53715;BME280;39608;55.630;37.864;2023-04-27T17:52:34;99009.59;;;19.57;36.90
53715;BME280;39608;55.630;37.864;2023-04-27T17:57:37;99001.06;;;19.39;37.39
53715;BME280;39608;55.630;37.864;2023-04-27T18:02:40;99006.91;;;19.38;37.20
53715;BME280;39608;55.630;37.864;2023-04-27T18:07:43;98995.34;;;19.28;37.23
53715;BME280;39608;55.630;37.864;2023-04-27T18:12:46;99005.97;;;19.30;37.53
53715;BME280;39608;55.630;37.864;2023-04-27T18:17:48;99004.75;;;19.27;37.41
53715;BME280;39608;55.630;37.864;2023-04-27T18:22:52;98993.94;;;19.15;37.42
53715;BME280;39608;55.630;37.864;2023-04-27T18:27:54;98999.66;;;19.06;37.67
53715;BME280;39608;55.630;37.864;2023-04-27T18:32:56;98997.53;;;18.96;37.98
53715;BME280;39608;55.630;37.864;2023-04-27T18:38:00;98991.94;;;18.92;37.96
53715;BME280;39608;55.630;37.864;2023-04-27T18:43:03;98997.94;;;18.78;38.35
53715;BME280;39608;55.630;37.864;2023-04-27T18:48:06;98997.03;;;18.71;38.67
53715;BME280;39608;55.630;37.864;2023-04-27T18:53:09;98988.06;;;18.54;38.86
53715;BME280;39608;55.630;37.864;2023-04-27T18:58:11;98984.34;;;18.46;39.19
53715;BME280;39608;55.630;37.864;2023-04-27T19:03:13;98989.34;;;18.41;39.62
53715;BME280;39608;55.630;37.864;2023-04-27T19:08:17;98987.69;;;18.36;39.66
53715;BME280;39608;55.630;37.864;2023-04-27T19:13:19;98976.78;;;18.20;40.03
53715;BME280;39608;55.630;37.864;2023-04-27T19:18:21;98981.75;;;18.15;40.60
53715;BME280;39608;55.630;37.864;2023-04-27T19:23:24;98968.56;;;18.04;40.51
53715;BME280;39608;55.630;37.864;2023-04-27T19:28:27;98971.66;;;18.03;40.82
53715;BME280;39608;55.630;37.864;2023-04-27T19:33:29;98966.75;;;17.92;41.15
53715;BME280;39608;55.630;37.864;2023-04-27T19:38:32;98980.28;;;17.85;41.50
53715;BME280;39608;55.630;37.864;2023-04-27T19:43:35;98968.78;;;17.64;42.01
53715;BME280;39608;55.630;37.864;2023-04-27T19:48:37;98972.88;;;17.54;41.93
53715;BME280;39608;55.630;37.864;2023-04-27T19:53:40;98974.56;;;17.42;42.37
53715;BME280;39608;55.630;37.864;2023-04-27T19:58:42;98959.09;;;17.18;42.56
53715;BME280;39608;55.630;37.864;2023-04-27T20:03:45;98970.56;;;17.08;43.13
53715;BME280;39608;55.630;37.864;2023-04-27T20:08:48;98949.41;;;16.92;43.34
53715;BME280;39608;55.630;37.864;2023-04-27T20:13:51;98997.00;;;17.16;43.61
53715;BME280;39608;55.630;37.864;2023-04-27T20:18:53;98979.84;;;17.03;43.90
53715;BME280;39608;55.630;37.864;2023-04-27T20:23:57;98992.03;;;17.06;43.95
53715;BME280;39608;55.630;37.864;2023-04-27T20:28:59;98929.72;;;16.58;44.52
53715;BME280;39608;55.630;37.864;2023-04-27T20:34:01;98934.75;;;16.56;44.87
53715;BME280;39608;55.630;37.864;2023-04-27T20:39:04;98984.94;;;16.89;44.58
53715;BME280;39608;55.630;37.864;2023-04-27T20:44:09;98960.25;;;16.60;45.06
53715;BME280;39608;55.630;37.864;2023-04-27T20:49:11;98950.84;;;16.58;44.76
53715;BME280;39608;55.630;37.864;2023-04-27T20:54:14;98981.13;;;16.65;45.27
53715;BME280;39608;55.630;37.864;2023-04-27T20:59:16;98963.28;;;16.55;45.44
53715;BME280;39608;55.630;37.864;2023-04-27T21:04:18;98984.72;;;16.53;45.83
53715;BME280;39608;55.630;37.864;2023-04-27T21:09:22;98979.72;;;16.71;44.93
53715;BME280;39608;55.630;37.864;2023-04-27T21:14:24;98984.03;;;16.56;45.65
53715;BME280;39608;55.630;37.864;2023-04-27T21:19:26;98979.22;;;16.53;45.96
53715;BME280;39608;55.630;37.864;2023-04-27T21:24:29;98977.78;;;16.43;46.02
53715;BME280;39608;55.630;37.864;2023-04-27T21:29:33;98973.34;;;16.39;46.30
53715;BME280;39608;55.630;37.864;2023-04-27T21:34:35;98971.56;;;16.31;46.76
53715;BME280;39608;55.630;37.864;2023-04-27T21:39:39;98965.09;;;16.23;46.90
53715;BME280;39608;55.630;37.864;2023-04-27T21:44:41;98961.22;;;16.12;47.17
53715;BME280;39608;55.630;37.864;2023-04-27T21:49:43;98958.63;;;16.03;47.16
53715;BME280;39608;55.630;37.864;2023-04-27T21:54:46;98966.75;;;15.99;47.34
53715;BME280;39608;55.630;37.864;2023-04-27T21:59:48;98962.75;;;15.84;47.66
53715;BME280;39608;55.630;37.864;2023-04-27T22:04:50;98958.53;;;15.74;47.95
53715;BME280;39608;55.630;37.864;2023-04-27T22:09:54;98962.63;;;15.81;47.74
53715;BME280;39608;55.630;37.864;2023-04-27T22:14:56;98957.50;;;15.79;47.93
53715;BME280;39608;55.630;37.864;2023-04-27T22:19:58;98954.22;;;15.86;47.49
53715;BME280;39608;55.630;37.864;2023-04-27T22:25:02;98957.50;;;15.79;47.80
53715;BME280;39608;55.630;37.864;2023-04-27T22:30:06;98959.91;;;15.81;47.84
53715;BME280;39608;55.630;37.864;2023-04-27T22:35:08;98951.22;;;15.79;47.92
53715;BME280;39608;55.630;37.864;2023-04-27T22:40:14;98949.97;;;15.76;48.11
53715;BME280;39608;55.630;37.864;2023-04-27T22:45:16;98942.69;;;15.68;48.43
53715;BME280;39608;55.630;37.864;2023-04-27T22:50:19;98943.59;;;15.72;48.50
53715;BME280;39608;55.630;37.864;2023-04-27T22:55:22;98951.38;;;15.70;48.61
53715;BME280;39608;55.630;37.864;2023-04-27T23:00:25;98956.91;;;15.73;48.26
53715;BME280;39608;55.630;37.864;2023-04-27T23:05:27;98959.78;;;15.40;49.29
53715;BME280;39608;55.630;37.864;2023-04-27T23:10:31;98957.72;;;15.37;49.10
53715;BME280;39608;55.630;37.864;2023-04-27T23:15:34;98939.75;;;15.23;49.62
53715;BME280;39608;55.630;37.864;2023-04-27T23:20:36;98958.63;;;15.41;49.21
53715;BME280;39608;55.630;37.864;2023-04-27T23:25:39;98963.97;;;15.37;49.69
53715;BME280;39608;55.630;37.864;2023-04-27T23:30:42;98962.50;;;15.28;49.39
53715;BME280;39608;55.630;37.864;2023-04-27T23:35:44;98967.81;;;15.12;49.71
53715;BME280;39608;55.630;37.864;2023-04-27T23:40:48;98971.00;;;15.01;50.08
53715;BME280;39608;55.630;37.864;2023-04-27T23:45:50;98973.81;;;14.93;50.80
53715;BME280;39608;55.630;37.864;2023-04-27T23:50:57;98966.28;;;14.89;50.78
53715;BME280;39608;55.630;37.864;2023-04-27T23:56:01;98965.78;;;14.75;51.15
